createdAt,value
2024-02-22T00:00:17.305Z,52.44
2024-02-22T00:02:49.814Z,52.17
2024-02-22T00:05:16.764Z,52.38
2024-02-22T00:07:49.044Z,52.24
2024-02-22T00:10:16.698Z,52.23
2024-02-22T00:12:45.674Z,52.23
2024-02-22T00:15:12.415Z,52.18
2024-02-22T00:17:43.815Z,52.25
2024-02-22T00:20:13.871Z,52.35
2024-02-22T00:22:41.215Z,52.08
2024-02-22T00:25:08.717Z,52.12
2024-02-22T00:27:39.861Z,52.09
2024-02-22T00:30:17.843Z,52.01
2024-02-22T00:32:46.078Z,52.40
2024-02-22T00:35:15.141Z,52.47
2024-02-22T00:37:44.567Z,52.31
2024-02-22T00:40:15.193Z,52.58
2024-02-22T00:42:42.535Z,52.36
2024-02-22T00:45:12.578Z,52.26
2024-02-22T00:47:41.614Z,52.24
2024-02-22T00:50:11.776Z,52.07
2024-02-22T00:52:38.709Z,52.23
2024-02-22T00:55:06.088Z,52.22
2024-02-22T00:57:35.656Z,52.26
2024-02-22T01:00:07.856Z,52.31
2024-02-22T01:02:34.939Z,52.15
2024-02-22T01:05:04.116Z,52.31
2024-02-22T01:07:39.178Z,52.01
2024-02-22T01:10:09.650Z,52.34
2024-02-22T01:12:36.436Z,52.04
2024-02-22T01:15:03.592Z,52.11
2024-02-22T01:17:30.415Z,51.96
2024-02-22T01:19:57.317Z,51.83
2024-02-22T01:22:26.849Z,51.95
2024-02-22T01:24:53.568Z,52.32
2024-02-22T01:27:23.413Z,52.15
2024-02-22T01:30:08.984Z,52.12
2024-02-22T01:32:42.354Z,52.15
2024-02-22T01:35:10.084Z,51.99
2024-02-22T01:37:37.003Z,52.08
2024-02-22T01:40:06.457Z,51.95
2024-02-22T01:42:35.446Z,52.14
2024-02-22T01:45:04.569Z,51.99
2024-02-22T01:47:34.441Z,51.97
2024-02-22T01:50:04.910Z,51.90
2024-02-22T01:52:33.898Z,51.93
2024-02-22T01:55:00.751Z,52.13
2024-02-22T01:57:29.699Z,52.11
2024-02-22T01:59:56.461Z,52.56
2024-02-22T02:02:23.224Z,52.40
2024-02-22T02:04:50.023Z,52.41
2024-02-22T02:07:19.625Z,52.15
2024-02-22T02:09:49.000Z,52.05
2024-02-22T02:12:23.448Z,52.19
2024-02-22T02:14:53.032Z,52.10
2024-02-22T02:17:22.144Z,51.94
2024-02-22T02:19:49.006Z,51.88
2024-02-22T02:22:40.558Z,51.87
2024-02-22T02:25:10.528Z,51.79
2024-02-22T02:27:38.290Z,51.81
2024-02-22T02:30:10.818Z,51.95
2024-02-22T02:32:38.648Z,51.77
2024-02-22T02:35:06.059Z,51.82
2024-02-22T02:37:33.029Z,51.73
2024-02-22T02:40:02.040Z,51.94
2024-02-22T02:42:31.110Z,51.79
2024-02-22T02:45:01.034Z,51.59
2024-02-22T02:47:32.396Z,51.63
2024-02-22T02:50:02.232Z,51.53
2024-02-22T02:52:29.058Z,51.50
2024-02-22T02:55:00.568Z,51.75
2024-02-22T02:57:27.348Z,51.61
2024-02-22T03:00:01.651Z,51.58
2024-02-22T03:02:31.632Z,51.59
2024-02-22T03:04:58.434Z,51.69
2024-02-22T03:07:29.838Z,51.52
2024-02-22T03:09:58.674Z,51.69
2024-02-22T03:12:25.385Z,51.57
2024-02-22T03:14:52.141Z,51.61
2024-02-22T03:17:24.538Z,51.54
2024-02-22T03:19:51.399Z,51.44
2024-02-22T03:22:18.216Z,51.58
2024-02-22T03:24:47.263Z,51.56
2024-02-22T03:27:17.020Z,51.35
2024-02-22T03:29:43.928Z,51.67
2024-02-22T03:32:13.374Z,51.39
2024-02-22T03:34:45.709Z,51.38
2024-02-22T03:37:14.745Z,51.24
2024-02-22T03:39:42.742Z,51.30
2024-02-22T03:42:15.489Z,51.10
2024-02-22T03:44:45.386Z,51.31
2024-02-22T03:47:16.811Z,51.25
2024-02-22T03:49:43.657Z,51.21
2024-02-22T03:52:15.036Z,51.10
2024-02-22T03:54:41.826Z,51.03
2024-02-22T03:57:10.601Z,51.10
2024-02-22T03:59:41.962Z,51.05
2024-02-22T04:02:11.102Z,51.14
2024-02-22T04:04:49.813Z,51.35
2024-02-22T04:07:23.856Z,50.99
2024-02-22T04:09:52.273Z,50.99
2024-02-22T04:12:21.504Z,51.10
2024-02-22T04:14:51.499Z,50.76
2024-02-22T04:17:24.085Z,51.12
2024-02-22T04:19:50.925Z,50.83
2024-02-22T04:22:19.769Z,50.68
2024-02-22T04:24:49.186Z,50.78
2024-02-22T04:27:15.917Z,50.82
2024-02-22T04:29:47.901Z,50.74
2024-02-22T04:32:16.944Z,50.78
2024-02-22T04:34:45.992Z,50.70
2024-02-22T04:37:20.106Z,50.91
2024-02-22T04:39:51.910Z,50.60
2024-02-22T04:42:23.269Z,50.49
2024-02-22T04:44:52.883Z,50.71
2024-02-22T04:47:22.698Z,50.55
2024-02-22T04:49:51.600Z,50.87
2024-02-22T04:52:18.417Z,50.66
2024-02-22T04:54:47.462Z,50.64
2024-02-22T04:57:16.441Z,50.63
2024-02-22T04:59:46.164Z,50.57
2024-02-22T05:02:12.858Z,50.45
2024-02-22T05:04:41.878Z,50.50
2024-02-22T05:07:10.854Z,50.35
2024-02-22T05:09:39.682Z,50.41
2024-02-22T05:12:09.652Z,50.73
2024-02-22T05:14:36.467Z,50.34
2024-02-22T05:17:08.357Z,50.64
2024-02-22T05:19:38.002Z,50.17
2024-02-22T05:22:04.946Z,50.38
2024-02-22T05:24:34.134Z,50.37
2024-02-22T05:27:04.162Z,50.47
2024-02-22T05:29:32.943Z,50.45
2024-02-22T05:31:59.959Z,50.40
2024-02-22T05:34:27.000Z,50.39
2024-02-22T05:36:55.924Z,50.40
2024-02-22T05:39:24.766Z,50.57
2024-02-22T05:41:52.853Z,50.48
2024-02-22T05:44:20.306Z,50.44
2024-02-22T05:46:48.878Z,50.36
2024-02-22T05:49:23.384Z,50.29
2024-02-22T05:51:56.252Z,50.18
2024-02-22T05:54:28.333Z,49.99
2024-02-22T05:56:55.113Z,50.03
2024-02-22T05:59:24.006Z,50.33
2024-02-22T06:01:51.252Z,51.14
2024-02-22T06:04:18.345Z,50.70
2024-02-22T06:06:45.334Z,50.59
2024-02-22T06:09:14.596Z,50.54
2024-02-22T06:11:43.654Z,50.33
2024-02-22T06:14:11.890Z,50.26
2024-02-22T06:16:41.312Z,50.51
2024-02-22T06:19:12.905Z,50.37
2024-02-22T06:21:40.340Z,50.44
2024-02-22T06:24:09.733Z,50.42
2024-02-22T06:26:36.607Z,51.16
2024-02-22T06:29:06.512Z,50.62
2024-02-22T06:31:33.588Z,50.59
2024-02-22T06:34:02.818Z,50.88
2024-02-22T06:36:29.835Z,51.03
2024-02-22T06:38:57.461Z,46.58
2024-02-22T06:41:29.367Z,39.46
2024-02-22T06:43:58.159Z,38.21
2024-02-22T06:46:28.524Z,41.58
2024-02-22T06:49:00.793Z,43.78
2024-02-22T06:51:32.258Z,46.82
2024-02-22T06:53:59.227Z,47.02
2024-02-22T06:56:26.033Z,47.20
2024-02-22T06:58:55.755Z,47.60
2024-02-22T07:01:25.578Z,47.71
2024-02-22T07:06:34.459Z,48.05
2024-02-22T07:09:03.438Z,48.18
2024-02-22T07:11:34.122Z,48.02
2024-02-22T07:14:05.626Z,48.09
2024-02-22T07:16:35.240Z,48.39
2024-02-22T07:19:04.384Z,48.11
2024-02-22T07:21:34.988Z,48.04
2024-02-22T07:24:05.373Z,48.07
2024-02-22T07:26:35.406Z,48.13
2024-02-22T07:29:06.699Z,48.02
2024-02-22T07:31:38.074Z,48.09
2024-02-22T07:34:10.325Z,48.01
2024-02-22T07:36:37.340Z,48.05
2024-02-22T07:39:04.173Z,48.00
2024-02-22T07:41:33.928Z,47.83
2024-02-22T07:44:08.777Z,47.90
2024-02-22T07:46:38.070Z,47.87
2024-02-22T07:49:05.073Z,47.81
2024-02-22T07:51:33.602Z,47.72
2024-02-22T07:54:05.635Z,47.70
2024-02-22T07:56:38.994Z,47.58
2024-02-22T07:59:11.207Z,47.52
2024-02-22T08:01:42.150Z,47.47
2024-02-22T08:04:11.251Z,47.69
2024-02-22T08:06:43.290Z,47.52
2024-02-22T08:09:16.183Z,47.65
2024-02-22T08:11:42.985Z,42.64
2024-02-22T08:14:10.084Z,40.15
2024-02-22T08:16:42.071Z,39.60
2024-02-22T08:19:11.245Z,38.47
2024-02-22T08:21:40.492Z,39.76
2024-02-22T08:24:11.874Z,42.84
2024-02-22T08:26:41.728Z,44.71
2024-02-22T08:29:10.588Z,44.85
2024-02-22T08:31:39.688Z,44.74
2024-02-22T08:34:09.130Z,44.88
2024-02-22T08:36:39.041Z,45.15
2024-02-22T08:39:10.922Z,45.17
2024-02-22T08:41:39.843Z,45.42
2024-02-22T08:44:09.894Z,45.52
2024-02-22T08:46:49.003Z,45.57
2024-02-22T08:49:19.770Z,45.72
2024-02-22T08:51:48.708Z,45.87
2024-02-22T08:54:18.371Z,45.99
2024-02-22T08:59:43.209Z,45.97
2024-02-22T09:02:09.882Z,46.08
2024-02-22T09:04:39.295Z,46.28
2024-02-22T09:07:08.729Z,46.20
2024-02-22T09:09:35.414Z,46.41
2024-02-22T09:12:07.409Z,46.51
2024-02-22T09:14:35.382Z,46.49
2024-02-22T09:17:05.328Z,46.42
2024-02-22T09:19:34.388Z,46.59
2024-02-22T09:22:03.250Z,46.30
2024-02-22T09:24:30.780Z,46.41
2024-02-22T09:26:57.935Z,46.35
2024-02-22T09:29:28.143Z,46.13
2024-02-22T09:31:57.386Z,46.32
2024-02-22T09:34:27.108Z,46.33
2024-02-22T09:36:56.364Z,46.28
2024-02-22T09:39:25.273Z,46.42
2024-02-22T09:41:54.349Z,46.31
2024-02-22T09:44:23.844Z,46.41
2024-02-22T09:46:56.625Z,46.42
2024-02-22T09:49:24.306Z,46.30
2024-02-22T09:51:55.248Z,46.43
2024-02-22T09:54:25.098Z,46.61
2024-02-22T09:56:51.859Z,46.33
2024-02-22T09:59:25.146Z,46.27
2024-02-22T10:01:56.456Z,46.39
2024-02-22T10:04:24.847Z,46.45
2024-02-22T10:06:54.956Z,46.47
2024-02-22T10:09:24.652Z,46.50
2024-02-22T10:11:56.310Z,46.36
2024-02-22T10:14:26.372Z,46.45
2024-02-22T10:16:55.850Z,46.34
2024-02-22T10:19:27.766Z,46.47
2024-02-22T10:21:57.635Z,46.37
2024-02-22T10:24:29.683Z,46.36
2024-02-22T10:27:09.271Z,46.34
2024-02-22T10:29:39.543Z,46.11
2024-02-22T10:32:06.563Z,46.25
2024-02-22T10:34:33.571Z,48.00
2024-02-22T10:37:05.548Z,48.54
2024-02-22T10:39:34.728Z,47.22
2024-02-22T10:42:04.271Z,45.60
2024-02-22T10:44:33.375Z,45.36
2024-02-22T10:47:02.766Z,44.97
2024-02-22T10:49:35.438Z,44.87
2024-02-22T10:52:05.140Z,44.54
2024-02-22T10:54:35.400Z,44.14
2024-02-22T10:57:05.537Z,44.17
2024-02-22T10:59:32.784Z,43.91
2024-02-22T11:02:05.243Z,44.35
2024-02-22T11:04:33.198Z,45.29
2024-02-22T11:07:09.302Z,45.39
2024-02-22T11:09:47.225Z,45.44
2024-02-22T11:12:14.751Z,45.34
2024-02-22T11:14:44.445Z,45.39
2024-02-22T11:17:22.946Z,45.29
2024-02-22T11:19:54.109Z,45.14
2024-02-22T11:22:23.495Z,45.20
2024-02-22T11:24:51.326Z,45.18
2024-02-22T11:27:21.943Z,45.36
2024-02-22T11:29:53.474Z,45.34
2024-02-22T11:32:22.546Z,45.21
2024-02-22T11:34:58.811Z,45.27
2024-02-22T11:37:25.548Z,45.19
2024-02-22T11:39:58.985Z,45.41
2024-02-22T11:42:25.850Z,45.22
2024-02-22T11:44:56.215Z,45.30
2024-02-22T11:47:24.280Z,45.27
2024-02-22T11:49:51.132Z,45.23
2024-02-22T11:52:22.893Z,45.37
2024-02-22T11:54:55.320Z,45.37
2024-02-22T11:57:21.997Z,45.31
2024-02-22T11:59:50.494Z,45.40
2024-02-22T12:02:19.821Z,45.66
2024-02-22T12:04:46.809Z,45.51
2024-02-22T12:07:15.972Z,45.62
2024-02-22T12:09:48.106Z,45.55
2024-02-22T12:12:17.207Z,45.45
2024-02-22T12:15:03.087Z,45.40
2024-02-22T12:17:35.984Z,45.68
2024-02-22T12:20:04.184Z,45.40
2024-02-22T12:22:32.495Z,45.34
2024-02-22T12:25:01.543Z,45.37
2024-02-22T12:27:30.962Z,45.69
2024-02-22T12:29:59.217Z,45.56
2024-02-22T12:32:26.114Z,45.54
2024-02-22T12:34:55.826Z,45.69
2024-02-22T12:37:24.705Z,45.61
2024-02-22T12:39:51.416Z,45.52
2024-02-22T12:42:21.229Z,45.54
2024-02-22T12:44:50.641Z,45.51
2024-02-22T12:47:20.134Z,45.65
2024-02-22T12:49:47.300Z,45.71
2024-02-22T12:52:16.437Z,45.84
2024-02-22T12:54:43.212Z,45.78
2024-02-22T12:57:14.089Z,45.88
2024-02-22T12:59:42.112Z,45.83
2024-02-22T13:02:09.137Z,45.75
2024-02-22T13:04:36.081Z,45.76
2024-02-22T13:07:10.962Z,45.55
2024-02-22T13:09:42.321Z,45.60
2024-02-22T13:12:09.197Z,45.54
2024-02-22T13:14:38.722Z,45.43
2024-02-22T13:17:07.881Z,45.21
2024-02-22T13:19:36.715Z,45.16
2024-02-22T13:22:03.659Z,45.27
2024-02-22T13:24:33.708Z,45.35
2024-02-22T13:27:02.603Z,45.11
2024-02-22T13:29:31.458Z,45.13
2024-02-22T13:32:00.342Z,45.07
2024-02-22T13:34:29.316Z,44.92
2024-02-22T13:37:00.675Z,44.80
2024-02-22T13:39:30.329Z,44.77
2024-02-22T13:41:59.375Z,44.64
2024-02-22T13:44:31.002Z,44.63
2024-02-22T13:46:59.500Z,44.67
2024-02-22T13:49:28.817Z,44.50
2024-02-22T13:52:04.366Z,44.69
2024-02-22T13:54:39.676Z,44.34
2024-02-22T13:57:08.844Z,44.50
2024-02-22T13:59:35.718Z,44.29
2024-02-22T14:02:04.817Z,44.22
2024-02-22T14:04:34.704Z,44.29
2024-02-22T14:07:07.050Z,44.34
2024-02-22T14:09:36.116Z,44.36
2024-02-22T14:12:08.749Z,44.48
2024-02-22T14:14:38.412Z,44.40
2024-02-22T14:17:05.185Z,44.39
2024-02-22T14:19:31.951Z,44.64
2024-02-22T14:22:03.327Z,44.35
2024-02-22T14:24:30.103Z,44.37
2024-02-22T14:27:12.897Z,44.32
2024-02-22T14:29:45.690Z,44.44
2024-02-22T14:32:16.521Z,44.26
2024-02-22T14:34:49.957Z,44.20
2024-02-22T14:37:16.875Z,44.29
2024-02-22T14:39:45.884Z,44.07
2024-02-22T14:42:18.785Z,43.95
2024-02-22T14:44:50.901Z,43.93
2024-02-22T14:47:20.318Z,44.02
2024-02-22T14:49:50.256Z,44.05
2024-02-22T14:52:19.155Z,43.75
2024-02-22T14:54:46.142Z,43.84
2024-02-22T14:57:18.520Z,44.43
2024-02-22T14:59:47.395Z,46.36
2024-02-22T15:02:14.239Z,45.73
2024-02-22T15:04:46.422Z,45.72
2024-02-22T15:07:17.908Z,45.65
2024-02-22T15:09:44.706Z,45.22
2024-02-22T15:12:11.634Z,47.50
2024-02-22T15:14:39.802Z,46.65
2024-02-22T15:17:11.318Z,47.32
2024-02-22T15:19:40.381Z,47.91
2024-02-22T15:22:07.864Z,49.08
2024-02-22T15:24:36.761Z,49.26
2024-02-22T15:27:04.702Z,48.70
2024-02-22T15:29:33.694Z,48.96
2024-02-22T15:32:01.303Z,49.91
2024-02-22T15:34:33.441Z,50.18
2024-02-22T15:37:02.877Z,49.83
2024-02-22T15:39:32.336Z,50.19
2024-02-22T15:42:03.733Z,51.91
2024-02-22T15:44:30.517Z,51.01
2024-02-22T15:46:57.742Z,51.88
2024-02-22T15:49:27.168Z,51.78
2024-02-22T15:51:56.162Z,50.66
2024-02-22T15:54:23.025Z,50.65
2024-02-22T15:56:51.875Z,51.54
2024-02-22T15:59:18.727Z,52.13
2024-02-22T16:01:46.638Z,51.73
2024-02-22T16:04:13.591Z,51.69
2024-02-22T16:06:42.451Z,51.04
2024-02-22T16:09:13.932Z,51.31
2024-02-22T16:11:40.752Z,51.14
2024-02-22T16:14:07.677Z,51.36
2024-02-22T16:16:34.520Z,51.79
2024-02-22T16:19:01.497Z,51.72
2024-02-22T16:21:28.339Z,51.26
2024-02-22T16:23:56.071Z,51.96
2024-02-22T16:26:23.104Z,51.62
2024-02-22T16:28:52.091Z,51.47
2024-02-22T16:31:18.997Z,51.86
2024-02-22T16:33:50.444Z,51.57
2024-02-22T16:36:17.488Z,51.62
2024-02-22T16:38:54.578Z,52.08
2024-02-22T16:41:29.946Z,52.21
2024-02-22T16:44:05.188Z,51.75
2024-02-22T16:46:33.237Z,51.81
2024-02-22T16:49:00.617Z,52.04
2024-02-22T16:51:32.254Z,53.04
2024-02-22T16:54:03.661Z,53.75
2024-02-22T16:56:35.086Z,54.73
2024-02-22T16:59:05.209Z,51.97
2024-02-22T17:01:34.457Z,51.53
2024-02-22T17:04:04.316Z,51.42
2024-02-22T17:06:32.819Z,51.10
2024-02-22T17:09:01.789Z,50.18
2024-02-22T17:11:32.209Z,50.56
2024-02-22T17:14:01.879Z,51.84
2024-02-22T17:16:28.688Z,52.22
2024-02-22T17:18:57.865Z,51.61
2024-02-22T17:21:26.069Z,52.15
2024-02-22T17:23:53.481Z,51.24
2024-02-22T17:26:23.081Z,52.07
2024-02-22T17:28:54.551Z,53.08
2024-02-22T17:31:28.507Z,55.59
2024-02-22T17:33:55.445Z,56.57
2024-02-22T17:36:26.990Z,56.93
2024-02-22T17:38:55.884Z,57.24
2024-02-22T17:41:28.984Z,56.96
2024-02-22T17:43:58.046Z,57.35
2024-02-22T17:46:25.449Z,58.09
2024-02-22T17:48:55.185Z,59.21
2024-02-22T17:51:33.979Z,59.44
2024-02-22T17:54:09.248Z,59.90
2024-02-22T17:56:36.074Z,60.22
2024-02-22T17:59:05.128Z,60.33
2024-02-22T18:01:32.024Z,60.63
2024-02-22T18:04:01.389Z,60.75
2024-02-22T18:06:32.747Z,60.84
2024-02-22T18:08:59.461Z,61.26
2024-02-22T18:11:26.225Z,61.34
2024-02-22T18:14:05.282Z,61.41
2024-02-22T18:16:32.243Z,61.66
2024-02-22T18:19:01.221Z,61.65
2024-02-22T18:21:30.177Z,61.73
2024-02-22T18:24:01.525Z,61.93
2024-02-22T18:26:30.733Z,61.98
2024-02-22T18:28:57.552Z,62.11
2024-02-22T18:31:26.511Z,62.32
2024-02-22T18:33:55.543Z,62.41
2024-02-22T18:36:22.510Z,62.45
2024-02-22T18:38:51.536Z,62.63
2024-02-22T18:41:24.581Z,62.59
2024-02-22T18:44:01.492Z,62.72
2024-02-22T18:46:31.007Z,62.67
2024-02-22T18:49:00.249Z,62.82
2024-02-22T18:51:29.051Z,62.78
2024-02-22T18:53:57.953Z,62.97
2024-02-22T18:56:26.841Z,62.88
2024-02-22T18:58:59.724Z,63.18
2024-02-22T19:01:31.440Z,63.08
2024-02-22T19:03:58.251Z,63.24
2024-02-22T19:06:27.426Z,63.34
2024-02-22T19:08:54.229Z,63.23
2024-02-22T19:11:26.064Z,63.43
2024-02-22T19:13:53.473Z,63.28
2024-02-22T19:16:25.787Z,63.25
2024-02-22T19:19:00.610Z,63.42
2024-02-22T19:21:28.135Z,63.51
2024-02-22T19:23:58.191Z,63.33
2024-02-22T19:26:27.140Z,63.61
2024-02-22T19:28:58.567Z,63.71
2024-02-22T19:31:25.621Z,63.72
2024-02-22T19:33:56.134Z,63.66
2024-02-22T19:36:34.909Z,63.82
2024-02-22T19:39:13.061Z,63.91
2024-02-22T19:41:43.138Z,63.80
2024-02-22T19:44:13.249Z,63.81
2024-02-22T19:46:42.138Z,63.79
2024-02-22T19:49:11.213Z,63.89
2024-02-22T19:51:43.851Z,63.90
2024-02-22T19:54:15.524Z,63.94
2024-02-22T19:56:45.098Z,63.74
2024-02-22T19:59:17.216Z,63.80
2024-02-22T20:01:44.958Z,64.16
2024-02-22T20:04:11.845Z,64.22
2024-02-22T20:06:44.031Z,64.20
2024-02-22T20:09:11.174Z,64.06
2024-02-22T20:11:41.896Z,64.07
2024-02-22T20:14:10.850Z,64.09
2024-02-22T20:16:37.681Z,64.08
2024-02-22T20:19:07.671Z,64.29
2024-02-22T20:21:39.213Z,64.13
2024-02-22T20:24:09.224Z,64.37
2024-02-22T20:26:39.612Z,64.43
2024-02-22T20:29:09.186Z,64.36
2024-02-22T20:31:35.989Z,64.49
2024-02-22T20:34:04.700Z,64.42
2024-02-22T20:36:32.961Z,64.59
2024-02-22T20:38:59.821Z,64.58
2024-02-22T20:41:28.744Z,64.57
2024-02-22T20:43:57.819Z,64.71
2024-02-22T20:46:28.003Z,64.66
2024-02-22T20:48:56.421Z,64.52
2024-02-22T20:51:27.127Z,64.52
2024-02-22T20:53:56.149Z,64.48
2024-02-22T20:56:27.730Z,64.66
2024-02-22T20:58:54.734Z,64.55
2024-02-22T21:01:23.786Z,64.39
2024-02-22T21:03:50.551Z,64.61
2024-02-22T21:06:24.796Z,64.54
2024-02-22T21:08:54.637Z,64.62
2024-02-22T21:11:26.197Z,64.65
2024-02-22T21:13:55.559Z,64.71
2024-02-22T21:16:33.738Z,64.65
2024-02-22T21:19:00.685Z,64.51
2024-02-22T21:21:31.185Z,64.61
2024-02-22T21:23:57.956Z,64.61
2024-02-22T21:26:26.842Z,64.64
2024-02-22T21:28:58.325Z,64.31
2024-02-22T21:31:25.843Z,64.40
2024-02-22T21:33:57.376Z,64.58
2024-02-22T21:36:24.205Z,64.52
2024-02-22T21:38:55.452Z,64.71
2024-02-22T21:41:24.641Z,61.62
2024-02-22T21:43:54.009Z,49.38
2024-02-22T21:46:23.114Z,61.44
2024-02-22T21:48:50.841Z,62.73
2024-02-22T21:51:17.649Z,62.24
2024-02-22T21:53:52.596Z,61.61
2024-02-22T21:56:26.880Z,61.11
2024-02-22T21:58:55.814Z,61.36
2024-02-22T22:01:24.671Z,61.62
2024-02-22T22:03:53.888Z,61.89
2024-02-22T22:06:24.844Z,62.11
2024-02-22T22:08:51.759Z,62.19
2024-02-22T22:11:18.568Z,62.25
2024-02-22T22:13:47.458Z,62.45
2024-02-22T22:16:19.147Z,62.28
2024-02-22T22:18:48.773Z,62.59
2024-02-22T22:21:25.290Z,62.62
2024-02-22T22:24:03.458Z,62.52
2024-02-22T22:26:33.800Z,62.59
2024-02-22T22:29:07.685Z,62.48
2024-02-22T22:31:40.321Z,62.70
2024-02-22T22:34:10.346Z,62.96
2024-02-22T22:36:37.265Z,63.08
2024-02-22T22:39:04.800Z,62.98
2024-02-22T22:41:37.934Z,63.24
2024-02-22T22:44:05.647Z,63.12
2024-02-22T22:46:34.780Z,63.58
2024-02-22T22:49:04.740Z,63.43
2024-02-22T22:51:33.873Z,63.35
2024-02-22T22:54:03.787Z,63.68
2024-02-22T22:56:30.612Z,63.47
2024-02-22T22:59:01.088Z,63.50
2024-02-22T23:01:27.811Z,62.87
2024-02-22T23:03:55.869Z,62.65
2024-02-22T23:06:28.046Z,62.90
2024-02-22T23:08:57.463Z,63.04
2024-02-22T23:11:30.669Z,63.10
2024-02-22T23:13:58.548Z,62.90
2024-02-22T23:16:31.034Z,63.03
2024-02-22T23:19:00.088Z,63.08
2024-02-22T23:21:37.308Z,62.78
2024-02-22T23:24:05.140Z,62.92
2024-02-22T23:26:34.286Z,63.09
2024-02-22T23:29:05.735Z,63.02
2024-02-22T23:31:35.527Z,63.20
2024-02-22T23:34:04.461Z,62.94
2024-02-22T23:36:35.951Z,63.22
2024-02-22T23:39:05.629Z,63.24
2024-02-22T23:41:32.659Z,63.10
2024-02-22T23:44:04.789Z,63.18
2024-02-22T23:46:31.784Z,63.12
2024-02-22T23:49:04.833Z,63.14
2024-02-22T23:51:37.275Z,62.89
2024-02-22T23:54:09.014Z,62.56
2024-02-22T23:56:38.220Z,62.91
2024-02-22T23:59:07.553Z,62.86
